sensor_id;sensor_type;location;lat;lon;timestamp;P1;durP1;ratioP1;P2;durP2;ratioP2
10005;SDS011;5042;42.626;23.382;2024-03-25T00:00:22;0.50;;;0.50;;
10005;SDS011;5042;42.626;23.382;2024-03-25T00:02:50;0.40;;;0.40;;
10005;SDS011;5042;42.626;23.382;2024-03-25T00:05:16;0.50;;;0.50;;
10005;SDS011;5042;42.626;23.382;2024-03-25T00:07:47;0.43;;;0.43;;
10005;SDS011;5042;42.626;23.382;2024-03-25T00:10:15;0.30;;;0.30;;
10005;SDS011;5042;42.626;23.382;2024-03-25T00:12:42;0.33;;;0.33;;
10005;SDS011;5042;42.626;23.382;2024-03-25T00:15:08;0.40;;;0.40;;
10005;SDS011;5042;42.626;23.382;2024-03-25T00:17:35;0.30;;;0.30;;
10005;SDS011;5042;42.626;23.382;2024-03-25T00:20:01;0.37;;;0.37;;
10005;SDS011;5042;42.626;23.382;2024-03-25T00:22:31;0.73;;;0.40;;
10005;SDS011;5042;42.626;23.382;2024-03-25T00:24:57;0.40;;;0.40;;
10005;SDS011;5042;42.626;23.382;2024-03-25T00:27:25;0.30;;;0.30;;
10005;SDS011;5042;42.626;23.382;2024-03-25T00:29:51;0.20;;;0.20;;
10005;SDS011;5042;42.626;23.382;2024-03-25T00:32:18;0.93;;;0.93;;
10005;SDS011;5042;42.626;23.382;2024-03-25T00:34:44;0.93;;;0.40;;
10005;SDS011;5042;42.626;23.382;2024-03-25T00:37:11;0.30;;;0.30;;
10005;SDS011;5042;42.626;23.382;2024-03-25T00:39:36;0.30;;;0.30;;
10005;SDS011;5042;42.626;23.382;2024-03-25T00:42:04;0.30;;;0.30;;
10005;SDS011;5042;42.626;23.382;2024-03-25T00:44:31;0.37;;;0.37;;
10005;SDS011;5042;42.626;23.382;2024-03-25T00:46:58;0.50;;;0.50;;
10005;SDS011;5042;42.626;23.382;2024-03-25T00:49:24;0.37;;;0.37;;
10005;SDS011;5042;42.626;23.382;2024-03-25T00:51:51;0.30;;;0.30;;
10005;SDS011;5042;42.626;23.382;2024-03-25T00:54:17;0.40;;;0.40;;
10005;SDS011;5042;42.626;23.382;2024-03-25T00:56:44;1.60;;;0.40;;
10005;SDS011;5042;42.626;23.382;2024-03-25T00:59:11;0.30;;;0.30;;
10005;SDS011;5042;42.626;23.382;2024-03-25T01:01:39;0.50;;;0.50;;
10005;SDS011;5042;42.626;23.382;2024-03-25T01:04:05;0.40;;;0.40;;
10005;SDS011;5042;42.626;23.382;2024-03-25T01:06:33;0.40;;;0.40;;
10005;SDS011;5042;42.626;23.382;2024-03-25T01:08:58;0.30;;;0.30;;
10005;SDS011;5042;42.626;23.382;2024-03-25T01:11:25;0.43;;;0.40;;
10005;SDS011;5042;42.626;23.382;2024-03-25T01:13:51;0.30;;;0.30;;
10005;SDS011;5042;42.626;23.382;2024-03-25T01:16:18;0.40;;;0.40;;
10005;SDS011;5042;42.626;23.382;2024-03-25T01:18:45;0.30;;;0.30;;
10005;SDS011;5042;42.626;23.382;2024-03-25T01:21:12;0.40;;;0.40;;
10005;SDS011;5042;42.626;23.382;2024-03-25T01:23:38;0.30;;;0.30;;
10005;SDS011;5042;42.626;23.382;2024-03-25T01:26:05;0.33;;;0.33;;
10005;SDS011;5042;42.626;23.382;2024-03-25T01:28:32;0.30;;;0.30;;
10005;SDS011;5042;42.626;23.382;2024-03-25T01:30:59;0.40;;;0.40;;
10005;SDS011;5042;42.626;23.382;2024-03-25T01:33:25;0.40;;;0.40;;
10005;SDS011;5042;42.626;23.382;2024-03-25T01:35:54;0.40;;;0.40;;
10005;SDS011;5042;42.626;23.382;2024-03-25T01:38:20;0.30;;;0.30;;
10005;SDS011;5042;42.626;23.382;2024-03-25T01:40:47;0.40;;;0.40;;
10005;SDS011;5042;42.626;23.382;2024-03-25T01:43:14;0.30;;;0.30;;
10005;SDS011;5042;42.626;23.382;2024-03-25T01:45:41;0.40;;;0.40;;
10005;SDS011;5042;42.626;23.382;2024-03-25T01:48:08;0.33;;;0.33;;
10005;SDS011;5042;42.626;23.382;2024-03-25T01:50:38;0.30;;;0.30;;
10005;SDS011;5042;42.626;23.382;2024-03-25T01:53:07;0.40;;;0.40;;
10005;SDS011;5042;42.626;23.382;2024-03-25T01:55:36;0.50;;;0.50;;
10005;SDS011;5042;42.626;23.382;2024-03-25T01:58:03;0.53;;;0.40;;
10005;SDS011;5042;42.626;23.382;2024-03-25T02:00:31;0.50;;;0.50;;
10005;SDS011;5042;42.626;23.382;2024-03-25T02:02:58;0.30;;;0.30;;
10005;SDS011;5042;42.626;23.382;2024-03-25T02:05:25;0.40;;;0.40;;
10005;SDS011;5042;42.626;23.382;2024-03-25T02:07:51;0.30;;;0.30;;
10005;SDS011;5042;42.626;23.382;2024-03-25T02:10:21;0.60;;;0.50;;
10005;SDS011;5042;42.626;23.382;2024-03-25T02:12:47;0.50;;;0.50;;
10005;SDS011;5042;42.626;23.382;2024-03-25T02:15:15;0.50;;;0.50;;
10005;SDS011;5042;42.626;23.382;2024-03-25T02:17:41;0.40;;;0.40;;
10005;SDS011;5042;42.626;23.382;2024-03-25T02:20:09;0.73;;;0.50;;
10005;SDS011;5042;42.626;23.382;2024-03-25T02:22:37;0.57;;;0.57;;
10005;SDS011;5042;42.626;23.382;2024-03-25T02:25:05;0.60;;;0.60;;
10005;SDS011;5042;42.626;23.382;2024-03-25T02:27:35;0.60;;;0.60;;
10005;SDS011;5042;42.626;23.382;2024-03-25T02:30:03;0.60;;;0.60;;
10005;SDS011;5042;42.626;23.382;2024-03-25T02:32:31;0.50;;;0.50;;
10005;SDS011;5042;42.626;23.382;2024-03-25T02:34:58;0.47;;;0.40;;
10005;SDS011;5042;42.626;23.382;2024-03-25T02:37:24;0.50;;;0.50;;
10005;SDS011;5042;42.626;23.382;2024-03-25T02:39:52;0.50;;;0.50;;
10005;SDS011;5042;42.626;23.382;2024-03-25T02:42:20;0.60;;;0.60;;
10005;SDS011;5042;42.626;23.382;2024-03-25T02:44:49;0.60;;;0.60;;
10005;SDS011;5042;42.626;23.382;2024-03-25T02:47:15;0.60;;;0.60;;
10005;SDS011;5042;42.626;23.382;2024-03-25T02:49:43;0.40;;;0.40;;
10005;SDS011;5042;42.626;23.382;2024-03-25T02:52:08;0.60;;;0.60;;
10005;SDS011;5042;42.626;23.382;2024-03-25T02:54:35;0.43;;;0.43;;
10005;SDS011;5042;42.626;23.382;2024-03-25T02:57:01;0.50;;;0.50;;
10005;SDS011;5042;42.626;23.382;2024-03-25T02:59:28;0.60;;;0.60;;
10005;SDS011;5042;42.626;23.382;2024-03-25T03:01:55;0.60;;;0.60;;
10005;SDS011;5042;42.626;23.382;2024-03-25T03:04:22;1.07;;;0.60;;
10005;SDS011;5042;42.626;23.382;2024-03-25T03:06:48;0.60;;;0.60;;
10005;SDS011;5042;42.626;23.382;2024-03-25T03:09:15;0.80;;;0.60;;
10005;SDS011;5042;42.626;23.382;2024-03-25T03:11:41;0.60;;;0.60;;
10005;SDS011;5042;42.626;23.382;2024-03-25T03:14:08;0.70;;;0.70;;
10005;SDS011;5042;42.626;23.382;2024-03-25T03:16:34;0.70;;;0.70;;
10005;SDS011;5042;42.626;23.382;2024-03-25T03:19:02;0.60;;;0.60;;
10005;SDS011;5042;42.626;23.382;2024-03-25T03:21:28;0.73;;;0.73;;
10005;SDS011;5042;42.626;23.382;2024-03-25T03:23:56;0.80;;;0.80;;
10005;SDS011;5042;42.626;23.382;2024-03-25T03:26:22;1.00;;;1.00;;
10005;SDS011;5042;42.626;23.382;2024-03-25T03:28:52;0.87;;;0.87;;
10005;SDS011;5042;42.626;23.382;2024-03-25T03:31:18;1.13;;;1.10;;
10005;SDS011;5042;42.626;23.382;2024-03-25T03:33:46;1.33;;;1.23;;
10005;SDS011;5042;42.626;23.382;2024-03-25T03:36:14;1.33;;;1.23;;
10005;SDS011;5042;42.626;23.382;2024-03-25T03:38:41;1.67;;;1.57;;
10005;SDS011;5042;42.626;23.382;2024-03-25T03:41:07;1.80;;;1.70;;
10005;SDS011;5042;42.626;23.382;2024-03-25T03:43:35;1.90;;;1.80;;
10005;SDS011;5042;42.626;23.382;2024-03-25T03:46:01;2.20;;;2.00;;
10005;SDS011;5042;42.626;23.382;2024-03-25T03:48:28;3.03;;;2.30;;
10005;SDS011;5042;42.626;23.382;2024-03-25T03:50:54;2.57;;;2.37;;
10005;SDS011;5042;42.626;23.382;2024-03-25T03:53:23;2.63;;;2.43;;
10005;SDS011;5042;42.626;23.382;2024-03-25T03:55:54;2.93;;;2.63;;
10005;SDS011;5042;42.626;23.382;2024-03-25T03:58:22;3.43;;;2.77;;
10005;SDS011;5042;42.626;23.382;2024-03-25T04:00:48;3.90;;;3.10;;
10005;SDS011;5042;42.626;23.382;2024-03-25T04:03:15;3.23;;;3.00;;
10005;SDS011;5042;42.626;23.382;2024-03-25T04:05:41;3.37;;;3.07;;
10005;SDS011;5042;42.626;23.382;2024-03-25T04:08:08;3.10;;;2.80;;
10005;SDS011;5042;42.626;23.382;2024-03-25T04:10:35;3.20;;;2.90;;
10005;SDS011;5042;42.626;23.382;2024-03-25T04:13:03;2.87;;;2.60;;
10005;SDS011;5042;42.626;23.382;2024-03-25T04:15:29;3.40;;;2.50;;
10005;SDS011;5042;42.626;23.382;2024-03-25T04:17:58;4.77;;;3.00;;
10005;SDS011;5042;42.626;23.382;2024-03-25T04:20:25;4.57;;;3.00;;
10005;SDS011;5042;42.626;23.382;2024-03-25T04:22:53;4.40;;;3.23;;
10005;SDS011;5042;42.626;23.382;2024-03-25T04:25:19;3.90;;;2.93;;
10005;SDS011;5042;42.626;23.382;2024-03-25T04:27:47;3.60;;;3.30;;
10005;SDS011;5042;42.626;23.382;2024-03-25T04:30:13;4.13;;;3.70;;
10005;SDS011;5042;42.626;23.382;2024-03-25T04:32:40;4.53;;;3.80;;
10005;SDS011;5042;42.626;23.382;2024-03-25T04:35:06;4.80;;;4.40;;
10005;SDS011;5042;42.626;23.382;2024-03-25T04:37:34;4.93;;;4.00;;
10005;SDS011;5042;42.626;23.382;2024-03-25T04:40:00;5.27;;;4.30;;
10005;SDS011;5042;42.626;23.382;2024-03-25T04:42:27;5.20;;;4.50;;
10005;SDS011;5042;42.626;23.382;2024-03-25T04:44:54;5.77;;;4.67;;
10005;SDS011;5042;42.626;23.382;2024-03-25T04:47:20;5.60;;;4.73;;
10005;SDS011;5042;42.626;23.382;2024-03-25T04:49:46;6.33;;;5.13;;
10005;SDS011;5042;42.626;23.382;2024-03-25T04:52:12;6.03;;;5.07;;
10005;SDS011;5042;42.626;23.382;2024-03-25T04:54:38;7.73;;;5.77;;
10005;SDS011;5042;42.626;23.382;2024-03-25T04:57:04;6.90;;;5.17;;
10005;SDS011;5042;42.626;23.382;2024-03-25T04:59:31;7.03;;;5.53;;
10005;SDS011;5042;42.626;23.382;2024-03-25T05:01:58;6.83;;;5.63;;
10005;SDS011;5042;42.626;23.382;2024-03-25T05:04:24;7.10;;;5.37;;
10005;SDS011;5042;42.626;23.382;2024-03-25T05:06:50;7.67;;;5.60;;
10005;SDS011;5042;42.626;23.382;2024-03-25T05:09:16;8.07;;;6.17;;
10005;SDS011;5042;42.626;23.382;2024-03-25T05:11:42;7.80;;;5.50;;
10005;SDS011;5042;42.626;23.382;2024-03-25T05:14:08;7.13;;;5.77;;
10005;SDS011;5042;42.626;23.382;2024-03-25T05:16:34;8.00;;;5.80;;
10005;SDS011;5042;42.626;23.382;2024-03-25T05:19:01;7.63;;;6.23;;
10005;SDS011;5042;42.626;23.382;2024-03-25T05:21:27;7.63;;;5.97;;
10005;SDS011;5042;42.626;23.382;2024-03-25T05:23:53;8.60;;;6.37;;
10005;SDS011;5042;42.626;23.382;2024-03-25T05:26:19;8.70;;;6.10;;
10005;SDS011;5042;42.626;23.382;2024-03-25T05:28:45;7.87;;;6.23;;
10005;SDS011;5042;42.626;23.382;2024-03-25T05:31:10;8.53;;;6.50;;
10005;SDS011;5042;42.626;23.382;2024-03-25T05:33:36;8.47;;;6.77;;
10005;SDS011;5042;42.626;23.382;2024-03-25T05:36:04;9.50;;;7.13;;
10005;SDS011;5042;42.626;23.382;2024-03-25T05:38:30;8.30;;;6.53;;
10005;SDS011;5042;42.626;23.382;2024-03-25T05:40:56;8.30;;;6.80;;
10005;SDS011;5042;42.626;23.382;2024-03-25T05:43:22;9.40;;;7.10;;
10005;SDS011;5042;42.626;23.382;2024-03-25T05:45:51;9.03;;;7.47;;
10005;SDS011;5042;42.626;23.382;2024-03-25T05:48:17;9.77;;;7.57;;
10005;SDS011;5042;42.626;23.382;2024-03-25T05:50:43;10.40;;;7.20;;
10005;SDS011;5042;42.626;23.382;2024-03-25T05:53:10;9.00;;;6.37;;
10005;SDS011;5042;42.626;23.382;2024-03-25T05:55:37;10.17;;;7.23;;
10005;SDS011;5042;42.626;23.382;2024-03-25T05:58:03;8.73;;;6.77;;
10005;SDS011;5042;42.626;23.382;2024-03-25T06:00:29;8.23;;;7.07;;
10005;SDS011;5042;42.626;23.382;2024-03-25T06:02:55;8.87;;;7.43;;
10005;SDS011;5042;42.626;23.382;2024-03-25T06:05:21;9.40;;;7.63;;
10005;SDS011;5042;42.626;23.382;2024-03-25T06:07:47;8.03;;;6.10;;
10005;SDS011;5042;42.626;23.382;2024-03-25T06:10:15;7.67;;;6.57;;
10005;SDS011;5042;42.626;23.382;2024-03-25T06:12:41;9.20;;;6.73;;
10005;SDS011;5042;42.626;23.382;2024-03-25T06:15:07;8.20;;;6.73;;
10005;SDS011;5042;42.626;23.382;2024-03-25T06:17:33;10.33;;;6.93;;
10005;SDS011;5042;42.626;23.382;2024-03-25T06:19:59;8.30;;;6.83;;
10005;SDS011;5042;42.626;23.382;2024-03-25T06:22:25;9.50;;;7.27;;
10005;SDS011;5042;42.626;23.382;2024-03-25T06:24:51;8.50;;;7.07;;
10005;SDS011;5042;42.626;23.382;2024-03-25T06:27:18;8.33;;;7.03;;
10005;SDS011;5042;42.626;23.382;2024-03-25T06:29:44;8.53;;;7.40;;
10005;SDS011;5042;42.626;23.382;2024-03-25T06:32:10;8.70;;;7.50;;
10005;SDS011;5042;42.626;23.382;2024-03-25T06:34:55;11.33;;;7.77;;
10005;SDS011;5042;42.626;23.382;2024-03-25T06:37:21;9.37;;;8.03;;
10005;SDS011;5042;42.626;23.382;2024-03-25T06:39:47;10.13;;;7.50;;
10005;SDS011;5042;42.626;23.382;2024-03-25T06:42:12;8.33;;;6.77;;
10005;SDS011;5042;42.626;23.382;2024-03-25T06:44:40;8.33;;;7.33;;
10005;SDS011;5042;42.626;23.382;2024-03-25T06:47:06;9.40;;;6.80;;
10005;SDS011;5042;42.626;23.382;2024-03-25T06:49:31;7.07;;;6.37;;
10005;SDS011;5042;42.626;23.382;2024-03-25T06:51:57;7.60;;;6.80;;
10005;SDS011;5042;42.626;23.382;2024-03-25T06:54:23;7.97;;;6.40;;
10005;SDS011;5042;42.626;23.382;2024-03-25T06:56:49;8.13;;;6.20;;
10005;SDS011;5042;42.626;23.382;2024-03-25T06:59:15;7.13;;;6.20;;
10005;SDS011;5042;42.626;23.382;2024-03-25T07:01:42;7.27;;;6.57;;
10005;SDS011;5042;42.626;23.382;2024-03-25T07:04:08;7.37;;;5.97;;
10005;SDS011;5042;42.626;23.382;2024-03-25T07:06:34;8.10;;;7.30;;
10005;SDS011;5042;42.626;23.382;2024-03-25T07:09:00;7.53;;;6.80;;
10005;SDS011;5042;42.626;23.382;2024-03-25T07:11:26;8.13;;;6.77;;
10005;SDS011;5042;42.626;23.382;2024-03-25T07:13:52;7.13;;;6.47;;
10005;SDS011;5042;42.626;23.382;2024-03-25T07:16:18;8.10;;;6.43;;
10005;SDS011;5042;42.626;23.382;2024-03-25T07:18:45;7.10;;;6.40;;
10005;SDS011;5042;42.626;23.382;2024-03-25T07:21:11;8.50;;;6.77;;
10005;SDS011;5042;42.626;23.382;2024-03-25T07:23:37;7.23;;;6.50;;
10005;SDS011;5042;42.626;23.382;2024-03-25T07:26:03;6.70;;;5.67;;
10005;SDS011;5042;42.626;23.382;2024-03-25T07:28:29;7.23;;;6.00;;
10005;SDS011;5042;42.626;23.382;2024-03-25T07:30:55;6.50;;;5.90;;
10005;SDS011;5042;42.626;23.382;2024-03-25T07:33:20;7.27;;;6.30;;
10005;SDS011;5042;42.626;23.382;2024-03-25T07:35:48;6.70;;;5.63;;
10005;SDS011;5042;42.626;23.382;2024-03-25T07:38:14;6.90;;;6.20;;
10005;SDS011;5042;42.626;23.382;2024-03-25T07:40:40;6.90;;;6.20;;
10005;SDS011;5042;42.626;23.382;2024-03-25T07:43:06;6.83;;;6.13;;
10005;SDS011;5042;42.626;23.382;2024-03-25T07:45:31;6.93;;;6.33;;
10005;SDS011;5042;42.626;23.382;2024-03-25T07:47:57;6.43;;;5.83;;
10005;SDS011;5042;42.626;23.382;2024-03-25T07:50:23;6.63;;;5.90;;
10005;SDS011;5042;42.626;23.382;2024-03-25T07:52:50;6.10;;;5.50;;
10005;SDS011;5042;42.626;23.382;2024-03-25T07:55:16;5.70;;;5.10;;
10005;SDS011;5042;42.626;23.382;2024-03-25T07:57:42;6.37;;;5.77;;
10005;SDS011;5042;42.626;23.382;2024-03-25T08:00:08;6.47;;;5.87;;
10005;SDS011;5042;42.626;23.382;2024-03-25T08:02:34;6.23;;;5.63;;
10005;SDS011;5042;42.626;23.382;2024-03-25T08:05:01;6.83;;;6.17;;
10005;SDS011;5042;42.626;23.382;2024-03-25T08:07:26;7.87;;;6.03;;
10005;SDS011;5042;42.626;23.382;2024-03-25T08:09:54;6.30;;;5.70;;
10005;SDS011;5042;42.626;23.382;2024-03-25T08:12:20;5.53;;;5.03;;
10005;SDS011;5042;42.626;23.382;2024-03-25T08:14:45;6.33;;;5.60;;
10005;SDS011;5042;42.626;23.382;2024-03-25T08:17:11;5.90;;;5.40;;
10005;SDS011;5042;42.626;23.382;2024-03-25T08:19:37;6.27;;;5.67;;
10005;SDS011;5042;42.626;23.382;2024-03-25T08:22:03;6.43;;;5.83;;
10005;SDS011;5042;42.626;23.382;2024-03-25T08:24:29;6.30;;;5.70;;
10005;SDS011;5042;42.626;23.382;2024-03-25T08:26:56;6.30;;;5.70;;
10005;SDS011;5042;42.626;23.382;2024-03-25T08:29:22;5.90;;;5.30;;
10005;SDS011;5042;42.626;23.382;2024-03-25T08:31:48;6.07;;;5.47;;
10005;SDS011;5042;42.626;23.382;2024-03-25T08:34:14;5.83;;;5.33;;
10005;SDS011;5042;42.626;23.382;2024-03-25T08:36:40;6.30;;;5.67;;
10005;SDS011;5042;42.626;23.382;2024-03-25T08:39:06;6.20;;;5.60;;
10005;SDS011;5042;42.626;23.382;2024-03-25T08:41:32;6.23;;;5.63;;
10005;SDS011;5042;42.626;23.382;2024-03-25T08:43:59;5.77;;;5.27;;
10005;SDS011;5042;42.626;23.382;2024-03-25T08:46:25;5.93;;;5.43;;
10005;SDS011;5042;42.626;23.382;2024-03-25T08:48:51;7.20;;;6.50;;
10005;SDS011;5042;42.626;23.382;2024-03-25T08:51:17;6.07;;;5.57;;
10005;SDS011;5042;42.626;23.382;2024-03-25T08:53:43;6.27;;;5.67;;
10005;SDS011;5042;42.626;23.382;2024-03-25T08:56:08;6.50;;;5.90;;
10005;SDS011;5042;42.626;23.382;2024-03-25T08:58:34;7.07;;;6.00;;
10005;SDS011;5042;42.626;23.382;2024-03-25T09:01:02;6.07;;;5.43;;
10005;SDS011;5042;42.626;23.382;2024-03-25T09:03:28;5.53;;;5.03;;
10005;SDS011;5042;42.626;23.382;2024-03-25T09:05:54;5.33;;;4.87;;
10005;SDS011;5042;42.626;23.382;2024-03-25T09:08:20;5.97;;;5.30;;
10005;SDS011;5042;42.626;23.382;2024-03-25T09:10:45;5.30;;;4.80;;
10005;SDS011;5042;42.626;23.382;2024-03-25T09:13:30;6.93;;;5.50;;
10005;SDS011;5042;42.626;23.382;2024-03-25T09:15:56;5.47;;;5.07;;
10005;SDS011;5042;42.626;23.382;2024-03-25T09:18:23;6.30;;;5.70;;
10005;SDS011;5042;42.626;23.382;2024-03-25T09:20:49;6.60;;;5.90;;
10005;SDS011;5042;42.626;23.382;2024-03-25T09:23:15;6.47;;;5.87;;
10005;SDS011;5042;42.626;23.382;2024-03-25T09:25:50;6.33;;;5.73;;
10005;SDS011;5042;42.626;23.382;2024-03-25T09:28:17;6.13;;;5.60;;
10005;SDS011;5042;42.626;23.382;2024-03-25T09:30:43;7.23;;;5.67;;
10005;SDS011;5042;42.626;23.382;2024-03-25T09:33:09;8.13;;;5.53;;
10005;SDS011;5042;42.626;23.382;2024-03-25T09:35:36;7.07;;;5.70;;
10005;SDS011;5042;42.626;23.382;2024-03-25T09:38:02;7.70;;;6.57;;
10005;SDS011;5042;42.626;23.382;2024-03-25T09:40:28;6.90;;;6.20;;
10005;SDS011;5042;42.626;23.382;2024-03-25T09:42:55;8.40;;;6.40;;
10005;SDS011;5042;42.626;23.382;2024-03-25T09:45:22;6.13;;;5.53;;
10005;SDS011;5042;42.626;23.382;2024-03-25T09:47:51;7.00;;;5.90;;
10005;SDS011;5042;42.626;23.382;2024-03-25T09:50:17;6.67;;;5.93;;
10005;SDS011;5042;42.626;23.382;2024-03-25T09:52:46;5.87;;;5.27;;
10005;SDS011;5042;42.626;23.382;2024-03-25T09:55:12;6.20;;;5.60;;
10005;SDS011;5042;42.626;23.382;2024-03-25T09:57:38;6.07;;;5.47;;
10005;SDS011;5042;42.626;23.382;2024-03-25T10:00:04;5.77;;;5.17;;
10005;SDS011;5042;42.626;23.382;2024-03-25T10:02:32;6.37;;;5.73;;
10005;SDS011;5042;42.626;23.382;2024-03-25T10:04:59;6.30;;;5.63;;
10005;SDS011;5042;42.626;23.382;2024-03-25T10:07:25;5.90;;;5.40;;
10005;SDS011;5042;42.626;23.382;2024-03-25T10:09:53;6.10;;;5.50;;
10005;SDS011;5042;42.626;23.382;2024-03-25T10:12:19;6.77;;;6.07;;
10005;SDS011;5042;42.626;23.382;2024-03-25T10:14:45;5.87;;;5.10;;
10005;SDS011;5042;42.626;23.382;2024-03-25T10:17:11;6.10;;;5.50;;
10005;SDS011;5042;42.626;23.382;2024-03-25T10:19:37;5.77;;;5.27;;
10005;SDS011;5042;42.626;23.382;2024-03-25T10:22:03;5.93;;;5.37;;
10005;SDS011;5042;42.626;23.382;2024-03-25T10:24:37;5.20;;;4.80;;
10005;SDS011;5042;42.626;23.382;2024-03-25T10:27:05;4.80;;;4.40;;
10005;SDS011;5042;42.626;23.382;2024-03-25T10:29:35;4.90;;;4.50;;
10005;SDS011;5042;42.626;23.382;2024-03-25T10:32:01;6.20;;;4.87;;
10005;SDS011;5042;42.626;23.382;2024-03-25T10:34:27;5.37;;;4.87;;
10005;SDS011;5042;42.626;23.382;2024-03-25T10:36:54;4.70;;;4.27;;
10005;SDS011;5042;42.626;23.382;2024-03-25T10:39:24;4.43;;;4.13;;
10005;SDS011;5042;42.626;23.382;2024-03-25T10:41:53;4.13;;;3.73;;
10005;SDS011;5042;42.626;23.382;2024-03-25T10:44:23;4.77;;;4.27;;
10005;SDS011;5042;42.626;23.382;2024-03-25T10:46:50;6.23;;;4.30;;
10005;SDS011;5042;42.626;23.382;2024-03-25T10:49:27;5.10;;;4.10;;
10005;SDS011;5042;42.626;23.382;2024-03-25T10:51:59;3.97;;;3.60;;
10005;SDS011;5042;42.626;23.382;2024-03-25T10:54:27;3.80;;;3.50;;
10005;SDS011;5042;42.626;23.382;2024-03-25T10:56:56;4.20;;;3.17;;
10005;SDS011;5042;42.626;23.382;2024-03-25T10:59:25;4.27;;;3.97;;
10005;SDS011;5042;42.626;23.382;2024-03-25T11:01:52;3.70;;;3.40;;
10005;SDS011;5042;42.626;23.382;2024-03-25T11:04:18;3.77;;;3.47;;
10005;SDS011;5042;42.626;23.382;2024-03-25T11:06:45;4.07;;;3.70;;
10005;SDS011;5042;42.626;23.382;2024-03-25T11:09:11;4.30;;;3.90;;
10005;SDS011;5042;42.626;23.382;2024-03-25T11:11:48;3.33;;;3.10;;
10005;SDS011;5042;42.626;23.382;2024-03-25T11:14:15;4.00;;;3.70;;
10005;SDS011;5042;42.626;23.382;2024-03-25T11:16:43;3.60;;;3.30;;
10005;SDS011;5042;42.626;23.382;2024-03-25T11:19:10;4.10;;;3.70;;
10005;SDS011;5042;42.626;23.382;2024-03-25T11:21:36;5.67;;;4.10;;
10005;SDS011;5042;42.626;23.382;2024-03-25T11:24:06;5.43;;;4.43;;
10005;SDS011;5042;42.626;23.382;2024-03-25T11:26:32;4.40;;;4.00;;
10005;SDS011;5042;42.626;23.382;2024-03-25T11:28:58;4.27;;;3.93;;
10005;SDS011;5042;42.626;23.382;2024-03-25T11:31:25;3.80;;;3.50;;
10005;SDS011;5042;42.626;23.382;2024-03-25T11:33:53;3.70;;;3.40;;
10005;SDS011;5042;42.626;23.382;2024-03-25T11:36:20;3.83;;;3.53;;
10005;SDS011;5042;42.626;23.382;2024-03-25T11:38:46;3.50;;;3.23;;
10005;SDS011;5042;42.626;23.382;2024-03-25T11:41:22;3.70;;;3.27;;
10005;SDS011;5042;42.626;23.382;2024-03-25T11:43:48;3.33;;;2.90;;
10005;SDS011;5042;42.626;23.382;2024-03-25T11:46:16;4.27;;;3.63;;
10005;SDS011;5042;42.626;23.382;2024-03-25T11:48:44;3.27;;;2.97;;
10005;SDS011;5042;42.626;23.382;2024-03-25T11:51:12;3.70;;;3.40;;
10005;SDS011;5042;42.626;23.382;2024-03-25T11:53:38;3.60;;;3.30;;
10005;SDS011;5042;42.626;23.382;2024-03-25T11:56:04;3.40;;;3.20;;
10005;SDS011;5042;42.626;23.382;2024-03-25T11:58:31;3.17;;;2.97;;
10005;SDS011;5042;42.626;23.382;2024-03-25T12:00:57;3.93;;;3.13;;
10005;SDS011;5042;42.626;23.382;2024-03-25T12:03:23;3.30;;;3.10;;
10005;SDS011;5042;42.626;23.382;2024-03-25T12:05:49;3.60;;;3.30;;
10005;SDS011;5042;42.626;23.382;2024-03-25T12:08:16;4.27;;;3.73;;
10005;SDS011;5042;42.626;23.382;2024-03-25T12:10:42;3.50;;;3.30;;
10005;SDS011;5042;42.626;23.382;2024-03-25T12:13:28;3.50;;;3.20;;
10005;SDS011;5042;42.626;23.382;2024-03-25T12:15:54;3.47;;;3.17;;
10005;SDS011;5042;42.626;23.382;2024-03-25T12:18:21;3.83;;;3.53;;
10005;SDS011;5042;42.626;23.382;2024-03-25T12:20:47;3.40;;;3.20;;
10005;SDS011;5042;42.626;23.382;2024-03-25T12:23:13;3.00;;;2.67;;
10005;SDS011;5042;42.626;23.382;2024-03-25T12:25:40;3.00;;;2.80;;
10005;SDS011;5042;42.626;23.382;2024-03-25T12:28:08;3.33;;;3.00;;
10005;SDS011;5042;42.626;23.382;2024-03-25T12:30:34;3.30;;;3.00;;
10005;SDS011;5042;42.626;23.382;2024-03-25T12:33:15;3.90;;;2.90;;
10005;SDS011;5042;42.626;23.382;2024-03-25T12:35:41;7.00;;;2.70;;
10005;SDS011;5042;42.626;23.382;2024-03-25T12:38:07;3.00;;;2.80;;
10005;SDS011;5042;42.626;23.382;2024-03-25T12:40:33;3.33;;;3.13;;
10005;SDS011;5042;42.626;23.382;2024-03-25T12:43:00;2.93;;;2.53;;
10005;SDS011;5042;42.626;23.382;2024-03-25T12:45:26;2.87;;;2.67;;
10005;SDS011;5042;42.626;23.382;2024-03-25T12:47:52;3.30;;;3.00;;
10005;SDS011;5042;42.626;23.382;2024-03-25T12:50:18;2.50;;;2.30;;
10005;SDS011;5042;42.626;23.382;2024-03-25T12:52:44;3.40;;;3.20;;
10005;SDS011;5042;42.626;23.382;2024-03-25T12:55:10;2.80;;;2.60;;
10005;SDS011;5042;42.626;23.382;2024-03-25T12:57:36;3.27;;;2.97;;
10005;SDS011;5042;42.626;23.382;2024-03-25T13:00:04;3.43;;;3.23;;
10005;SDS011;5042;42.626;23.382;2024-03-25T13:02:31;3.40;;;3.20;;
10005;SDS011;5042;42.626;23.382;2024-03-25T13:04:57;3.17;;;2.97;;
10005;SDS011;5042;42.626;23.382;2024-03-25T13:07:23;3.60;;;3.30;;
10005;SDS011;5042;42.626;23.382;2024-03-25T13:09:49;3.13;;;2.90;;
10005;SDS011;5042;42.626;23.382;2024-03-25T13:12:15;3.37;;;3.07;;
10005;SDS011;5042;42.626;23.382;2024-03-25T13:14:41;3.93;;;3.63;;
10005;SDS011;5042;42.626;23.382;2024-03-25T13:17:08;4.00;;;3.60;;
10005;SDS011;5042;42.626;23.382;2024-03-25T13:19:34;3.70;;;3.40;;
10005;SDS011;5042;42.626;23.382;2024-03-25T13:22:00;3.43;;;3.13;;
10005;SDS011;5042;42.626;23.382;2024-03-25T13:24:26;3.47;;;3.17;;
10005;SDS011;5042;42.626;23.382;2024-03-25T13:26:52;3.57;;;3.27;;
10005;SDS011;5042;42.626;23.382;2024-03-25T13:29:18;4.07;;;3.30;;
10005;SDS011;5042;42.626;23.382;2024-03-25T13:31:44;3.43;;;3.13;;
10005;SDS011;5042;42.626;23.382;2024-03-25T13:34:12;3.43;;;3.10;;
10005;SDS011;5042;42.626;23.382;2024-03-25T13:36:38;3.00;;;2.73;;
10005;SDS011;5042;42.626;23.382;2024-03-25T13:39:03;3.20;;;2.90;;
10005;SDS011;5042;42.626;23.382;2024-03-25T13:41:29;3.30;;;3.00;;
10005;SDS011;5042;42.626;23.382;2024-03-25T13:43:55;3.27;;;2.93;;
10005;SDS011;5042;42.626;23.382;2024-03-25T13:46:21;2.80;;;2.60;;
10005;SDS011;5042;42.626;23.382;2024-03-25T13:48:47;2.97;;;2.70;;
10005;SDS011;5042;42.626;23.382;2024-03-25T13:51:14;2.50;;;2.30;;
10005;SDS011;5042;42.626;23.382;2024-03-25T13:53:41;2.90;;;2.70;;
10005;SDS011;5042;42.626;23.382;2024-03-25T13:56:07;3.30;;;2.77;;
10005;SDS011;5042;42.626;23.382;2024-03-25T13:58:33;3.03;;;2.57;;
10005;SDS011;5042;42.626;23.382;2024-03-25T14:00:59;2.83;;;2.63;;
10005;SDS011;5042;42.626;23.382;2024-03-25T14:03:25;2.73;;;2.47;;
10005;SDS011;5042;42.626;23.382;2024-03-25T14:05:51;4.20;;;2.83;;
10005;SDS011;5042;42.626;23.382;2024-03-25T14:08:18;2.90;;;2.70;;
10005;SDS011;5042;42.626;23.382;2024-03-25T14:10:44;2.83;;;2.63;;
10005;SDS011;5042;42.626;23.382;2024-03-25T14:13:10;2.70;;;2.50;;
10005;SDS011;5042;42.626;23.382;2024-03-25T14:15:36;2.57;;;2.37;;
10005;SDS011;5042;42.626;23.382;2024-03-25T14:18:02;3.00;;;2.00;;
10005;SDS011;5042;42.626;23.382;2024-03-25T14:20:28;2.10;;;1.90;;
10005;SDS011;5042;42.626;23.382;2024-03-25T14:22:54;1.70;;;1.60;;
10005;SDS011;5042;42.626;23.382;2024-03-25T14:25:21;2.07;;;1.97;;
10005;SDS011;5042;42.626;23.382;2024-03-25T14:27:47;1.70;;;1.60;;
10005;SDS011;5042;42.626;23.382;2024-03-25T14:30:13;1.87;;;1.70;;
10005;SDS011;5042;42.626;23.382;2024-03-25T14:32:39;2.20;;;1.67;;
10005;SDS011;5042;42.626;23.382;2024-03-25T14:35:05;4.20;;;1.93;;
10005;SDS011;5042;42.626;23.382;2024-03-25T14:37:31;1.97;;;1.70;;
10005;SDS011;5042;42.626;23.382;2024-03-25T14:39:57;1.80;;;1.67;;
10005;SDS011;5042;42.626;23.382;2024-03-25T14:42:25;2.33;;;1.77;;
10005;SDS011;5042;42.626;23.382;2024-03-25T14:44:51;1.70;;;1.60;;